createdAt,value
2023-04-07T00:00:00.179Z, 14
2023-04-07T00:02:00.223Z, 14
2023-04-07T00:04:00.456Z, 13.4
2023-04-07T00:06:00.116Z, 13.4
2023-04-07T00:08:00.079Z, 14
2023-04-07T00:10:00.095Z, 14
2023-04-07T00:12:00.106Z, 14
2023-04-07T00:14:00.057Z, 16.6
2023-04-07T00:16:00.079Z, 16.6
2023-04-07T00:18:00.065Z, 15
2023-04-07T00:20:00.047Z, 15
2023-04-07T00:22:00.112Z, 15
2023-04-07T00:24:00.112Z, 15.8
2023-04-07T00:26:00.042Z, 15.8
2023-04-07T00:28:00.110Z, 16.8
2023-04-07T00:30:00.116Z, 16.8
2023-04-07T00:32:00.037Z, 16.8
2023-04-07T00:34:00.067Z, 16.4
2023-04-07T00:36:00.121Z, 16.4
2023-04-07T00:38:00.032Z, 18.4
2023-04-07T00:40:00.060Z, 18.4
2023-04-07T00:42:00.040Z, 18.4
2023-04-07T00:44:00.145Z, 18.2
2023-04-07T00:46:00.175Z, 18.2
2023-04-07T00:48:00.220Z, 20.5
2023-04-07T00:50:00.154Z, 20.5
2023-04-07T00:52:00.138Z, 20.2
2023-04-07T00:54:00.161Z, 20
2023-04-07T00:56:00.148Z, 20
2023-04-07T00:58:00.140Z, 19.7
2023-04-07T01:00:00.215Z, 19.7
2023-04-07T01:02:00.267Z, 24.3
2023-04-07T01:04:00.511Z, 24.3
2023-04-07T01:06:00.185Z, 24.3
2023-04-07T01:08:00.134Z, 24.5
2023-04-07T01:10:00.176Z, 24.5
2023-04-07T01:12:00.186Z, 22
2023-04-07T01:14:00.094Z, 22
2023-04-07T01:16:00.147Z, 22
2023-04-07T01:18:00.230Z, 23.9
2023-04-07T01:20:00.104Z, 23.9
2023-04-07T01:22:00.062Z, 23.7
2023-04-07T01:24:00.124Z, 23.7
2023-04-07T01:26:00.050Z, 23.7
2023-04-07T01:28:00.042Z, 24
2023-04-07T01:30:00.080Z, 24
2023-04-07T01:32:00.070Z, 26.1
2023-04-07T01:34:00.056Z, 26.1
2023-04-07T01:36:00.166Z, 26.1
2023-04-07T01:38:00.036Z, 27.7
2023-04-07T01:40:00.043Z, 27.7
2023-04-07T01:42:00.053Z, 28.4
2023-04-07T01:44:00.129Z, 28.4
2023-04-07T01:46:00.171Z, 28.4
2023-04-07T01:48:00.209Z, 26.8
2023-04-07T01:50:00.203Z, 26.8
2023-04-07T01:52:00.136Z, 26.5
2023-04-07T01:54:00.127Z, 26.5
2023-04-07T01:56:00.131Z, 26.5
2023-04-07T01:58:00.146Z, 28
2023-04-07T02:00:00.164Z, 28
2023-04-07T02:02:00.216Z, 27.9
2023-04-07T02:04:00.392Z, 27.9
2023-04-07T02:06:00.142Z, 27.9
2023-04-07T02:08:00.175Z, 24.8
2023-04-07T02:10:00.169Z, 24.8
2023-04-07T02:12:00.202Z, 21
2023-04-07T02:14:00.113Z, 21
2023-04-07T02:16:00.120Z, 21
2023-04-07T02:18:00.124Z, 24.4
2023-04-07T02:20:00.080Z, 24.4
2023-04-07T02:22:00.040Z, 24.6
2023-04-07T02:24:00.064Z, 24.6
2023-04-07T02:26:00.033Z, 24.6
2023-04-07T02:28:00.008Z, 22
2023-04-07T02:30:00.085Z, 22
2023-04-07T02:32:00.087Z, 21.9
2023-04-07T02:34:00.042Z, 21.9
2023-04-07T02:36:00.108Z, 21.9
2023-04-07T02:38:00.061Z, 20.5
2023-04-07T02:40:00.054Z, 20.5
2023-04-07T02:42:00.121Z, 18.4
2023-04-07T02:44:00.133Z, 18.4
2023-04-07T02:46:00.187Z, 18.4
2023-04-07T02:48:00.210Z, 19.5
2023-04-07T02:50:00.145Z, 19.5
2023-04-07T02:52:00.122Z, 18.5
2023-04-07T02:54:00.191Z, 18.5
2023-04-07T02:56:00.154Z, 18.5
2023-04-07T02:58:00.126Z, 18
2023-04-07T03:00:00.148Z, 18
2023-04-07T03:02:00.367Z, 15.1
2023-04-07T03:04:00.219Z, 15.1
2023-04-07T03:06:00.132Z, 15.1
2023-04-07T03:08:00.129Z, 15.2
2023-04-07T03:10:00.157Z, 15.2
2023-04-07T03:12:00.176Z, 17.7
2023-04-07T03:14:00.064Z, 17.7
2023-04-07T03:16:00.049Z, 17.7
2023-04-07T03:18:00.185Z, 17.4
2023-04-07T03:20:00.054Z, 17.4
2023-04-07T03:22:00.052Z, 18.5
2023-04-07T03:24:00.072Z, 18.5
2023-04-07T03:26:00.021Z, 18.5
2023-04-07T03:28:00.030Z, 17.7
2023-04-07T03:30:00.049Z, 17.7
2023-04-07T03:32:00.052Z, 17.6
2023-04-07T03:34:00.069Z, 17.6
2023-04-07T03:36:00.097Z, 17.6
2023-04-07T03:38:00.069Z, 18.3
2023-04-07T03:40:00.068Z, 18.3
2023-04-07T03:42:00.060Z, 19.5
2023-04-07T03:44:00.043Z, 19.5
2023-04-07T03:46:00.086Z, 19.2
2023-04-07T03:48:00.101Z, 18.3
2023-04-07T03:50:00.010Z, 18.3
2023-04-07T03:52:00.005Z, 16.9
2023-04-07T03:54:00.051Z, 16.9
2023-04-07T03:56:00.049Z, 16.7
2023-04-07T03:58:00.046Z, 16.7
2023-04-07T04:00:00.118Z, 16.7
2023-04-07T04:02:00.040Z, 17.1
2023-04-07T04:04:00.252Z, 17.1
2023-04-07T04:06:00.018Z, 18.8
2023-04-07T04:08:00.011Z, 18.8
2023-04-07T04:10:00.031Z, 18.8
2023-04-07T04:12:00.008Z, 19
2023-04-07T04:14:00.124Z, 19
2023-04-07T04:16:00.160Z, 19
2023-04-07T04:18:00.226Z, 19
2023-04-07T04:20:00.244Z, 19
2023-04-07T04:22:00.128Z, 20.6
2023-04-07T04:24:00.195Z, 20.6
2023-04-07T04:26:00.127Z, 20.1
2023-04-07T04:28:00.143Z, 20.1
2023-04-07T04:30:00.221Z, 20.1
2023-04-07T04:32:00.137Z, 19.1
2023-04-07T04:34:00.150Z, 19.1
2023-04-07T04:36:00.116Z, 18.1
2023-04-07T04:38:00.118Z, 18.1
2023-04-07T04:40:00.185Z, 18.1
2023-04-07T04:42:00.146Z, 17.9
2023-04-07T04:44:00.089Z, 17.9
2023-04-07T04:46:00.057Z, 20.6
2023-04-07T04:48:00.114Z, 20.6
2023-04-07T04:50:00.087Z, 20.6
2023-04-07T04:52:00.131Z, 19.6
2023-04-07T04:54:00.088Z, 19.6
2023-04-07T04:56:00.088Z, 19.3
2023-04-07T04:58:00.056Z, 19.3
2023-04-07T05:00:00.107Z, 19.3
2023-04-07T05:02:00.263Z, 20.4
2023-04-07T05:04:00.290Z, 20.4
2023-04-07T05:06:00.049Z, 19.5
2023-04-07T05:08:00.061Z, 19.5
2023-04-07T05:10:00.043Z, 19.5
2023-04-07T05:12:00.036Z, 17
2023-04-07T05:14:00.137Z, 17
2023-04-07T05:16:00.177Z, 21.1
2023-04-07T05:18:00.185Z, 21.1
2023-04-07T05:20:00.178Z, 21.1
2023-04-07T05:22:00.138Z, 18.9
2023-04-07T05:24:00.168Z, 18.9
2023-04-07T05:26:00.122Z, 21.2
2023-04-07T05:28:00.140Z, 21.2
2023-04-07T05:30:00.149Z, 21.2
2023-04-07T05:32:00.227Z, 23.6
2023-04-07T05:34:00.117Z, 23.6
2023-04-07T05:36:00.190Z, 24.3
2023-04-07T05:38:00.145Z, 24.3
2023-04-07T05:40:00.171Z, 24.3
2023-04-07T05:42:00.155Z, 24.5
2023-04-07T05:44:00.067Z, 24.5
2023-04-07T05:46:00.113Z, 25.9
2023-04-07T05:48:00.168Z, 25.9
2023-04-07T05:50:00.057Z, 25.9
2023-04-07T05:52:00.064Z, 30.5
2023-04-07T05:54:00.087Z, 30.5
2023-04-07T05:56:00.045Z, 31.2
2023-04-07T05:58:00.064Z, 31.2
2023-04-07T06:00:00.085Z, 31.2
2023-04-07T06:02:00.151Z, 32.6
2023-04-07T06:04:00.168Z, 32.6
2023-04-07T06:06:00.074Z, 29.1
2023-04-07T06:08:00.043Z, 29.1
2023-04-07T06:10:00.045Z, 29.1
2023-04-07T06:12:00.040Z, 31.6
2023-04-07T06:14:00.147Z, 31.6
2023-04-07T06:16:00.141Z, 30.7
2023-04-07T06:18:00.175Z, 30.7
2023-04-07T06:20:00.160Z, 30.7
2023-04-07T06:22:00.114Z, 30.6
2023-04-07T06:24:00.152Z, 30.6
2023-04-07T06:26:00.106Z, 29.8
2023-04-07T06:28:00.118Z, 29.8
2023-04-07T06:30:00.150Z, 29.8
2023-04-07T06:32:00.119Z, 24.3
2023-04-07T06:34:00.150Z, 24.3
2023-04-07T06:36:00.141Z, 28.2
2023-04-07T06:38:00.132Z, 28.2
2023-04-07T06:40:00.170Z, 28.2
2023-04-07T06:42:00.145Z, 29.2
2023-04-07T06:44:00.115Z, 29.2
2023-04-07T06:46:00.133Z, 26.2
2023-04-07T06:48:00.132Z, 26.2
2023-04-07T06:50:00.104Z, 25.6
2023-04-07T06:52:00.094Z, 24.1
2023-04-07T06:54:00.067Z, 24.1
2023-04-07T06:56:00.063Z, 25.4
2023-04-07T06:58:00.040Z, 25.4
2023-04-07T07:00:00.070Z, 21.6
2023-04-07T07:02:00.262Z, 21.6
2023-04-07T07:04:00.085Z, 21.6
2023-04-07T07:06:00.112Z, 24.5
2023-04-07T07:08:00.048Z, 24.5
2023-04-07T07:10:00.042Z, 25.8
2023-04-07T07:12:00.542Z, 25.8
2023-04-07T07:14:00.130Z, 25.8
2023-04-07T07:16:00.177Z, 24.4
2023-04-07T07:18:00.297Z, 24.4
2023-04-07T07:20:00.175Z, 30.7
2023-04-07T07:22:00.120Z, 30.7
2023-04-07T07:24:00.147Z, 30.7
2023-04-07T07:26:00.114Z, 25.3
2023-04-07T07:28:00.137Z, 25.3
2023-04-07T07:30:00.187Z, 24.6
2023-04-07T07:32:00.152Z, 24.6
2023-04-07T07:34:00.151Z, 24.6
2023-04-07T07:36:00.162Z, 26.5
2023-04-07T07:38:00.140Z, 26.5
2023-04-07T07:40:00.207Z, 26
2023-04-07T07:42:00.144Z, 26
2023-04-07T07:44:00.117Z, 26
2023-04-07T07:46:00.199Z, 34.1
2023-04-07T07:48:00.185Z, 34.1
2023-04-07T07:50:00.072Z, 26.1
2023-04-07T07:52:00.084Z, 26.1
2023-04-07T07:54:00.152Z, 26.1
2023-04-07T07:56:00.070Z, 35.9
2023-04-07T07:58:00.042Z, 35.9
2023-04-07T08:00:00.107Z, 33.2
2023-04-07T08:02:00.140Z, 33.2
2023-04-07T08:04:00.267Z, 33.2
2023-04-07T08:06:00.122Z, 30.1
2023-04-07T08:08:00.068Z, 30.1
2023-04-07T08:10:00.050Z, 34.6
2023-04-07T08:12:00.069Z, 34.6
2023-04-07T08:14:00.138Z, 34.6
2023-04-07T08:16:00.191Z, 34.3
2023-04-07T08:18:00.264Z, 34.3
2023-04-07T08:20:00.216Z, 38.3
2023-04-07T08:22:00.148Z, 38.3
2023-04-07T08:24:00.160Z, 38.3
2023-04-07T08:26:00.122Z, 31.5
2023-04-07T08:28:00.126Z, 31.5
2023-04-07T08:30:00.180Z, 32.6
2023-04-07T08:32:00.175Z, 32.6
2023-04-07T08:34:00.195Z, 32.6
2023-04-07T08:36:00.203Z, 31.9
2023-04-07T08:38:00.130Z, 31.9
2023-04-07T08:40:00.159Z, 32.7
2023-04-07T08:42:00.148Z, 32.7
2023-04-07T08:44:00.069Z, 32.7
2023-04-07T08:46:00.059Z, 37.2
2023-04-07T08:48:00.219Z, 37.2
2023-04-07T08:50:00.053Z, 34
2023-04-07T08:52:00.095Z, 34
2023-04-07T08:54:00.078Z, 34
2023-04-07T08:56:00.054Z, 40.2
2023-04-07T08:58:01.625Z, 40.2
2023-04-07T09:00:00.075Z, 34.2
2023-04-07T09:02:00.089Z, 34.2
2023-04-07T09:04:00.222Z, 34.2
2023-04-07T09:06:00.082Z, 33.3
2023-04-07T09:08:00.046Z, 33.3
2023-04-07T09:10:00.044Z, 42.4
2023-04-07T09:12:00.091Z, 42.4
2023-04-07T09:14:00.132Z, 42.4
2023-04-07T09:16:00.201Z, 37.8
2023-04-07T09:18:00.203Z, 37.8
2023-04-07T09:20:00.176Z, 36.5
2023-04-07T09:22:00.121Z, 36.5
2023-04-07T09:24:00.120Z, 36.5
2023-04-07T09:26:00.088Z, 35.9
2023-04-07T09:28:00.116Z, 35.9
2023-04-07T09:30:00.160Z, 36.8
2023-04-07T09:32:00.148Z, 36.8
2023-04-07T09:34:00.137Z, 36.8
2023-04-07T09:36:00.248Z, 32.2
2023-04-07T09:38:00.113Z, 32.2
2023-04-07T09:40:00.136Z, 29
2023-04-07T09:42:00.130Z, 29
2023-04-07T09:44:00.085Z, 29
2023-04-07T09:46:00.155Z, 27.1
2023-04-07T09:48:00.216Z, 27.1
2023-04-07T09:50:00.059Z, 46.6
2023-04-07T09:52:00.126Z, 46.6
2023-04-07T09:54:00.055Z, 40.7
2023-04-07T09:56:00.104Z, 23.1
2023-04-07T09:58:00.103Z, 23.1
2023-04-07T10:00:00.043Z, 22.6
2023-04-07T10:02:00.361Z, 22.6
2023-04-07T10:04:00.086Z, 22.3
2023-04-07T10:06:00.112Z, 22.3
2023-04-07T10:08:00.062Z, 22.3
2023-04-07T10:10:00.055Z, 21
2023-04-07T10:12:00.075Z, 21
2023-04-07T10:14:00.112Z, 19.7
2023-04-07T10:16:00.077Z, 19.7
2023-04-07T10:18:00.154Z, 19.7
2023-04-07T10:20:00.127Z, 25.4
2023-04-07T10:22:00.109Z, 25.4
2023-04-07T10:24:00.144Z, 21.4
2023-04-07T10:26:00.116Z, 21.4
2023-04-07T10:28:00.163Z, 21.4
2023-04-07T10:30:00.214Z, 15.2
2023-04-07T10:32:00.145Z, 15.2
2023-04-07T10:34:00.117Z, 15.9
2023-04-07T10:36:00.160Z, 15.9
2023-04-07T10:38:00.163Z, 15.9
2023-04-07T10:40:00.196Z, 15.6
2023-04-07T10:42:00.135Z, 15.6
2023-04-07T10:44:00.075Z, 40
2023-04-07T10:46:00.193Z, 40
2023-04-07T10:48:00.127Z, 40
2023-04-07T10:50:00.071Z, 12.6
2023-04-07T10:52:00.087Z, 12.6
2023-04-07T10:54:00.122Z, 11.5
2023-04-07T10:56:00.050Z, 11.5
2023-04-07T10:58:00.051Z, 11.5
2023-04-07T11:00:00.112Z, 7.7
2023-04-07T11:02:00.194Z, 7.7
2023-04-07T11:04:00.241Z, 6.5
2023-04-07T11:06:00.057Z, 6.5
2023-04-07T11:08:00.074Z, 6.5
2023-04-07T11:10:00.052Z, 7
2023-04-07T11:12:00.077Z, 7
2023-04-07T11:14:00.106Z, 6.9
2023-04-07T11:16:00.193Z, 6.9
2023-04-07T11:18:00.206Z, 6.9
2023-04-07T11:20:00.141Z, 6
2023-04-07T11:22:00.138Z, 6
2023-04-07T11:24:00.154Z, 11.8
2023-04-07T11:26:00.108Z, 11.8
2023-04-07T11:28:00.125Z, 11.8
2023-04-07T11:30:00.121Z, 14.2
2023-04-07T11:32:00.126Z, 14.2
2023-04-07T11:34:00.211Z, 13.3
2023-04-07T11:36:00.181Z, 13.3
2023-04-07T11:38:00.126Z, 13.3
2023-04-07T11:40:00.198Z, 11.8
2023-04-07T11:42:00.121Z, 11.8
2023-04-07T11:44:00.118Z, 16.7
2023-04-07T11:46:00.104Z, 16.7
2023-04-07T11:48:00.222Z, 16.7
2023-04-07T11:50:00.182Z, 8.1
2023-04-07T11:52:00.124Z, 8.1
2023-04-07T11:54:00.147Z, 8.2
2023-04-07T11:56:00.054Z, 8.2
2023-04-07T11:58:00.052Z, 8.2
2023-04-07T12:00:00.115Z, 6.1
2023-04-07T12:02:00.142Z, 6.1
2023-04-07T12:04:00.300Z, 6.6
2023-04-07T12:06:00.102Z, 6.6
2023-04-07T12:08:00.079Z, 6.6
2023-04-07T12:10:00.085Z, 7.2
2023-04-07T12:12:00.055Z, 7.2
2023-04-07T12:14:00.168Z, 6.9
2023-04-07T12:16:00.217Z, 6.9
2023-04-07T12:18:00.248Z, 6.9
2023-04-07T12:20:00.178Z, 9.3
2023-04-07T12:22:00.156Z, 9.3
2023-04-07T12:24:00.173Z, 4.1
2023-04-07T12:26:00.156Z, 4.1
2023-04-07T12:28:00.135Z, 4.1
2023-04-07T12:30:00.158Z, 2.6
2023-04-07T12:32:00.206Z, 2.6
2023-04-07T12:34:00.144Z, 3
2023-04-07T12:36:00.177Z, 3
2023-04-07T12:38:00.133Z, 3
2023-04-07T12:40:00.171Z, 3.1
2023-04-07T12:42:00.131Z, 3.1
2023-04-07T12:44:00.104Z, 1.7
2023-04-07T12:46:00.146Z, 1.7
2023-04-07T12:48:00.150Z, 1.7
2023-04-07T12:50:00.083Z, 2.1
2023-04-07T12:52:00.054Z, 2.1
2023-04-07T12:54:00.071Z, 2.1
2023-04-07T12:56:00.011Z, 2.1
2023-04-07T12:57:59.979Z, 2.1
2023-04-07T13:00:00.112Z, 3.9
2023-04-07T13:02:00.195Z, 3.9
2023-04-07T13:04:00.269Z, 3.4
2023-04-07T13:06:00.109Z, 3.4
2023-04-07T13:08:00.108Z, 3.4
2023-04-07T13:10:00.120Z, 3.8
2023-04-07T13:12:00.150Z, 3.8
2023-04-07T13:14:01.466Z, 7.1
2023-04-07T13:16:00.128Z, 7.1
2023-04-07T13:18:00.237Z, 6.4
2023-04-07T13:20:00.176Z, 4.6
2023-04-07T13:22:00.121Z, 4.6
2023-04-07T13:24:00.281Z, 3.9
2023-04-07T13:26:00.112Z, 3.9
2023-04-07T13:28:00.097Z, 2.8
2023-04-07T13:30:00.137Z, 2.8
2023-04-07T13:32:00.116Z, 2.8
2023-04-07T13:34:00.121Z, 3.5
2023-04-07T13:36:00.259Z, 3.5
2023-04-07T13:38:00.128Z, 3
2023-04-07T13:40:00.163Z, 3
2023-04-07T13:42:00.225Z, 3
2023-04-07T13:44:00.054Z, 4.1
2023-04-07T13:46:00.076Z, 4.1
2023-04-07T13:48:00.201Z, 4.7
2023-04-07T13:50:00.116Z, 4.7
2023-04-07T13:52:00.094Z, 4.7
2023-04-07T13:54:00.135Z, 2.3
2023-04-07T13:56:00.060Z, 2.3
2023-04-07T13:58:00.049Z, 3.7
2023-04-07T14:00:00.113Z, 3.7
2023-04-07T14:02:00.181Z, 3.7
2023-04-07T14:04:00.983Z, 5.9
2023-04-07T14:06:00.111Z, 5.9
2023-04-07T14:08:00.160Z, 1.7
2023-04-07T14:10:00.102Z, 1.7
2023-04-07T14:12:05.115Z, 1.7
2023-04-07T14:14:00.112Z, 2.2
2023-04-07T14:16:00.152Z, 2.2
2023-04-07T14:18:00.223Z, 2.1
2023-04-07T14:20:00.228Z, 2.1
2023-04-07T14:22:00.120Z, 2.1
2023-04-07T14:24:00.197Z, 2.8
2023-04-07T14:26:00.128Z, 2.8
2023-04-07T14:28:00.118Z, 2.4
2023-04-07T14:30:00.193Z, 2.4
2023-04-07T14:32:00.106Z, 2.4
2023-04-07T14:34:00.125Z, 1.6
2023-04-07T14:36:00.225Z, 1.6
2023-04-07T14:38:00.126Z, 2.7
2023-04-07T14:40:02.917Z, 2.7
2023-04-07T14:42:00.137Z, 2.7
2023-04-07T14:44:00.096Z, 3.4
2023-04-07T14:46:00.279Z, 3.4
2023-04-07T14:48:00.158Z, 1.2
2023-04-07T14:50:00.176Z, 1.2
2023-04-07T14:52:00.108Z, 1.2
2023-04-07T14:54:00.137Z, 2
2023-04-07T14:56:00.089Z, 2
2023-04-07T14:58:00.109Z, 1.1
2023-04-07T15:00:00.108Z, 1.1
2023-04-07T15:02:00.231Z, 1.1
2023-04-07T15:04:00.186Z, 1.6
2023-04-07T15:06:00.151Z, 1.6
2023-04-07T15:08:00.142Z, 0.8
2023-04-07T15:10:00.159Z, 0.8
2023-04-07T15:12:00.115Z, 0.8
2023-04-07T15:14:00.121Z, 0.7
2023-04-07T15:16:00.173Z, 0.7
2023-04-07T15:18:00.234Z, 0.6
2023-04-07T15:20:00.130Z, 0.6
2023-04-07T15:22:00.129Z, 0.6
2023-04-07T15:24:00.186Z, 2.2
2023-04-07T15:26:00.115Z, 2.2
2023-04-07T15:28:00.158Z, 0.5
2023-04-07T15:30:00.133Z, 0.5
2023-04-07T15:32:00.486Z, 0.5
2023-04-07T15:34:00.130Z, 0.7
2023-04-07T15:36:00.213Z, 0.7
2023-04-07T15:38:00.138Z, 2
2023-04-07T15:40:00.164Z, 2
2023-04-07T15:42:00.120Z, 2
2023-04-07T15:44:00.158Z, 1.5
2023-04-07T15:46:00.125Z, 1.5
2023-04-07T15:48:00.209Z, 1.4
2023-04-07T15:50:00.147Z, 1.4
2023-04-07T15:52:00.122Z, 1.4
2023-04-07T15:54:00.139Z, 1.5
2023-04-07T15:56:00.106Z, 1.5
2023-04-07T15:58:00.119Z, 1.3
2023-04-07T16:00:00.162Z, 1.3
2023-04-07T16:02:00.135Z, 1.3
2023-04-07T16:04:00.329Z, 2.2
2023-04-07T16:06:00.130Z, 2.2
2023-04-07T16:08:00.088Z, 2.8
2023-04-07T16:10:00.081Z, 2.8
2023-04-07T16:12:00.146Z, 2.8
2023-04-07T16:14:00.156Z, 2.2
2023-04-07T16:16:00.123Z, 2.2
2023-04-07T16:18:00.224Z, 1.9
2023-04-07T16:20:00.139Z, 1.9
2023-04-07T16:22:00.123Z, 1.9
2023-04-07T16:24:00.168Z, 0.9
2023-04-07T16:26:00.178Z, 0.9
2023-04-07T16:28:00.154Z, 1
2023-04-07T16:30:00.199Z, 1
2023-04-07T16:32:00.185Z, 1
2023-04-07T16:34:00.175Z, 2
2023-04-07T16:36:00.213Z, 2
2023-04-07T16:38:00.144Z, 3.5
2023-04-07T16:40:00.180Z, 3.5
2023-04-07T16:42:00.199Z, 3
2023-04-07T16:44:00.136Z, 1.8
2023-04-07T16:46:00.514Z, 1.8
2023-04-07T16:48:00.240Z, 2.5
2023-04-07T16:50:00.123Z, 2.5
2023-04-07T16:52:00.112Z, 4.4
2023-04-07T16:54:00.135Z, 4.4
2023-04-07T16:56:00.065Z, 4.4
2023-04-07T16:58:00.121Z, 2.1
2023-04-07T17:00:00.135Z, 2.1
2023-04-07T17:02:00.216Z, 2.5
2023-04-07T17:04:00.200Z, 2.5
2023-04-07T17:06:00.125Z, 2.5
2023-04-07T17:08:00.124Z, 2.6
2023-04-07T17:10:00.195Z, 2.6
2023-04-07T17:12:00.118Z, 1.6
2023-04-07T17:14:00.124Z, 1.6
2023-04-07T17:16:00.152Z, 1.6
2023-04-07T17:18:00.218Z, 1.6
2023-04-07T17:20:00.216Z, 1.6
2023-04-07T17:22:00.138Z, 1.8
2023-04-07T17:24:00.177Z, 1.8
2023-04-07T17:26:00.145Z, 1.8
2023-04-07T17:28:00.157Z, 1.7
2023-04-07T17:30:00.341Z, 1.7
2023-04-07T17:32:00.144Z, 4.8
2023-04-07T17:34:00.109Z, 4.8
2023-04-07T17:36:00.221Z, 4.8
2023-04-07T17:38:00.125Z, 2.5
2023-04-07T17:40:00.193Z, 2.5
2023-04-07T17:42:00.188Z, 2.4
2023-04-07T17:44:00.110Z, 2.4
2023-04-07T17:46:00.199Z, 2.4
2023-04-07T17:48:00.117Z, 3.4
2023-04-07T17:50:00.164Z, 3.4
2023-04-07T17:52:00.112Z, 5.7
2023-04-07T17:54:00.130Z, 5.7
2023-04-07T17:56:00.091Z, 5.7
2023-04-07T17:58:00.041Z, 10.5
2023-04-07T18:00:00.165Z, 10.5
2023-04-07T18:02:00.244Z, 2.9
2023-04-07T18:04:00.401Z, 2.9
2023-04-07T18:06:00.107Z, 2.9
2023-04-07T18:08:00.123Z, 1.8
2023-04-07T18:10:00.108Z, 1.8
2023-04-07T18:12:00.148Z, 4.9
2023-04-07T18:14:00.110Z, 4.9
2023-04-07T18:16:00.200Z, 4.9
2023-04-07T18:18:00.274Z, 5.2
2023-04-07T18:20:00.140Z, 5.2
2023-04-07T18:22:00.121Z, 3.6
2023-04-07T18:24:00.123Z, 3.6
2023-04-07T18:26:00.113Z, 3.6
2023-04-07T18:28:00.139Z, 5.8
2023-04-07T18:30:00.170Z, 5.8
2023-04-07T18:32:00.164Z, 4.3
2023-04-07T18:34:00.151Z, 4.3
2023-04-07T18:36:00.182Z, 4.3
2023-04-07T18:38:00.160Z, 4.1
2023-04-07T18:40:00.150Z, 4.1
2023-04-07T18:42:00.164Z, 5.8
2023-04-07T18:44:00.136Z, 5.8
2023-04-07T18:46:00.092Z, 5.8
2023-04-07T18:48:00.227Z, 5.4
2023-04-07T18:50:00.083Z, 5.4
2023-04-07T18:52:00.053Z, 6.4
2023-04-07T18:54:00.127Z, 6.4
2023-04-07T18:56:00.091Z, 6.4
2023-04-07T18:58:00.035Z, 6.4
2023-04-07T19:00:00.135Z, 6.4
2023-04-07T19:02:00.102Z, 5.6
2023-04-07T19:04:00.160Z, 5.6
2023-04-07T19:08:00.101Z, 5.4
2023-04-07T19:10:00.064Z, 5.4
2023-04-07T19:12:00.100Z, 5.4
2023-04-07T19:14:00.135Z, 5.4
2023-04-07T19:16:00.288Z, 5.4
2023-04-07T19:18:00.210Z, 49.3
2023-04-07T19:20:00.156Z, 49.3
2023-04-07T19:22:00.108Z, 21.9
2023-04-07T19:24:00.131Z, 21.9
2023-04-07T19:26:00.135Z, 21.9
2023-04-07T19:28:00.134Z, 8
2023-04-07T19:30:00.150Z, 8
2023-04-07T19:32:00.260Z, 9.8
2023-04-07T19:34:00.134Z, 9.8
2023-04-07T19:36:00.182Z, 9.8
2023-04-07T19:38:00.131Z, 23.7
2023-04-07T19:40:03.407Z, 23.7
2023-04-07T19:42:00.173Z, 9.9
2023-04-07T19:44:00.102Z, 9.9
2023-04-07T19:46:00.171Z, 9.9
2023-04-07T19:48:00.187Z, 7.5
2023-04-07T19:50:00.137Z, 7.5
2023-04-07T19:52:00.097Z, 12.7
2023-04-07T19:54:00.117Z, 12.7
2023-04-07T19:56:00.034Z, 11.5
2023-04-07T19:58:00.049Z, 8.2
2023-04-07T20:00:00.153Z, 8.2
2023-04-07T20:02:00.184Z, 8.3
2023-04-07T20:04:00.279Z, 8.3
2023-04-07T20:06:00.190Z, 8.6
2023-04-07T20:08:00.113Z, 8.6
2023-04-07T20:10:00.097Z, 8.6
2023-04-07T20:12:00.092Z, 11.5
2023-04-07T20:14:00.136Z, 11.5
2023-04-07T20:16:00.104Z, 9.6
2023-04-07T20:18:00.224Z, 9.6
2023-04-07T20:20:00.147Z, 9.6
2023-04-07T20:22:00.117Z, 10.7
2023-04-07T20:24:00.163Z, 10.7
2023-04-07T20:26:00.111Z, 9.5
2023-04-07T20:28:00.128Z, 9.5
2023-04-07T20:30:00.154Z, 9.5
2023-04-07T20:32:00.111Z, 10.5
2023-04-07T20:34:00.143Z, 10.5
2023-04-07T20:36:00.224Z, 16
2023-04-07T20:38:00.180Z, 16
2023-04-07T20:40:00.189Z, 16
2023-04-07T20:42:00.156Z, 18.4
2023-04-07T20:44:00.111Z, 18.4
2023-04-07T20:46:00.181Z, 18.1
2023-04-07T20:48:00.234Z, 18.1
2023-04-07T20:50:00.141Z, 18.1
2023-04-07T20:52:00.129Z, 17
2023-04-07T20:54:00.144Z, 17
2023-04-07T20:56:00.123Z, 18.1
2023-04-07T20:58:00.102Z, 18.1
2023-04-07T21:00:00.153Z, 18.1
2023-04-07T21:02:00.199Z, 12.6
2023-04-07T21:04:00.218Z, 12.6
2023-04-07T21:06:00.129Z, 17.9
2023-04-07T21:08:00.100Z, 17.9
2023-04-07T21:10:00.114Z, 17.9
2023-04-07T21:12:00.116Z, 25.3
2023-04-07T21:14:00.154Z, 25.3
2023-04-07T21:16:00.246Z, 26.2
2023-04-07T21:18:00.214Z, 26.2
2023-04-07T21:20:00.134Z, 26.2
2023-04-07T21:22:00.152Z, 24.4
2023-04-07T21:24:00.133Z, 24.4
2023-04-07T21:26:00.159Z, 28
2023-04-07T21:28:00.174Z, 28
2023-04-07T21:30:00.204Z, 28
2023-04-07T21:32:00.158Z, 30.3
2023-04-07T21:34:00.119Z, 30.3
2023-04-07T21:36:00.382Z, 26.5
2023-04-07T21:38:00.162Z, 26.5
2023-04-07T21:40:00.189Z, 26.5
2023-04-07T21:42:00.229Z, 30.5
2023-04-07T21:44:00.124Z, 30.5
2023-04-07T21:46:00.100Z, 34.6
2023-04-07T21:48:00.173Z, 34.6
2023-04-07T21:50:00.178Z, 34.6
2023-04-07T21:52:00.053Z, 34.3
2023-04-07T21:54:00.136Z, 34.3
2023-04-07T21:56:00.166Z, 27.1
2023-04-07T21:58:00.085Z, 27.1
2023-04-07T22:00:00.219Z, 27.1
2023-04-07T22:02:01.067Z, 27.5
2023-04-07T22:04:00.223Z, 27.5
2023-04-07T22:06:00.129Z, 38.2
2023-04-07T22:08:00.054Z, 38.2
2023-04-07T22:10:00.089Z, 38.2
2023-04-07T22:12:00.118Z, 33.2
2023-04-07T22:14:00.157Z, 33.2
2023-04-07T22:16:00.182Z, 35.7
2023-04-07T22:18:00.224Z, 35.7
2023-04-07T22:20:00.184Z, 35.7
2023-04-07T22:22:00.161Z, 37.1
2023-04-07T22:24:00.149Z, 37.1
2023-04-07T22:26:00.125Z, 40.9
2023-04-07T22:28:00.163Z, 40.9
2023-04-07T22:30:00.192Z, 42.8
2023-04-07T22:32:00.176Z, 44.8
2023-04-07T22:34:00.147Z, 44.8
2023-04-07T22:36:00.369Z, 43.8
2023-04-07T22:38:00.165Z, 43.8
2023-04-07T22:40:00.188Z, 47.5
2023-04-07T22:42:00.164Z, 47.5
2023-04-07T22:44:00.167Z, 47.5
2023-04-07T22:46:00.114Z, 51.8
2023-04-07T22:48:00.232Z, 51.8
2023-04-07T22:50:00.134Z, 56
2023-04-07T22:52:00.122Z, 56
2023-04-07T22:54:00.148Z, 56
2023-04-07T22:56:00.101Z, 46.8
2023-04-07T22:58:00.120Z, 46.8
2023-04-07T23:00:00.122Z, 47.7
2023-04-07T23:02:00.180Z, 47.7
2023-04-07T23:04:00.114Z, 47.7
2023-04-07T23:06:00.077Z, 48
2023-04-07T23:08:00.086Z, 48
2023-04-07T23:10:00.169Z, 47.9
2023-04-07T23:12:00.052Z, 47.9
2023-04-07T23:14:00.143Z, 47.9
2023-04-07T23:16:00.192Z, 51.6
2023-04-07T23:18:00.202Z, 51.6
2023-04-07T23:20:00.140Z, 55.2
2023-04-07T23:22:00.157Z, 55.2
2023-04-07T23:24:00.160Z, 55.2
2023-04-07T23:28:13.813Z, 52.9
2023-04-07T23:28:13.821Z, 52.9
2023-04-07T23:30:00.173Z, 52.5
2023-04-07T23:32:00.190Z, 52.5
2023-04-07T23:34:00.119Z, 52.5
2023-04-07T23:36:00.207Z, 54.7
2023-04-07T23:38:00.134Z, 54.7
2023-04-07T23:40:00.161Z, 51.7
2023-04-07T23:42:00.117Z, 51.7
2023-04-07T23:44:00.133Z, 51.7
2023-04-07T23:46:00.095Z, 54.4
2023-04-07T23:48:00.271Z, 54.4
2023-04-07T23:50:00.176Z, 53.1
2023-04-07T23:52:00.084Z, 53.1
2023-04-07T23:54:00.165Z, 53.1
2023-04-07T23:56:00.141Z, 51.8
2023-04-07T23:58:00.058Z, 51.8
